In Rescue
 
Open Full Screen Window  High Contrast Mode
April 19, 2021 8:22 PM CDT
Weather Information
Wind Direction
  ---
Wind Speed
  00 kt (0 mph)
Wind Gust
  00 kt (0 mph)
Altimeter
30.03 in
Visibility
10 SM
Temperature
00° C
32° F
Dewpoint
-12° C
10° F
Humidity
40%
1hr Rain Fall
00.00 in.
24hr Rain Fall
00.14 in.
Sky Condition
Scattered @ 7,000 ft
VFR

METAR KAIT 200122Z AUTO 00000KT 10SM SCT070 00/M12 A3003 RMK AO2

FAA Disclaimer: The data displayed is for advisory purposes only and is not to be used for flight planning or operations.